Time;durP1;ratioP1;P1;durP2;ratioP2;P2;SDS_P1;SDS_P2;PMS_P1;PMS_P2;Temp;Humidity;BMP_temperature;BMP_pressure;BME280_temperature;BME280_humidity;BME280_pressure;Samples;Min_cycle;Max_cycle;Signal;HPM_P1;HPM_P2
2022/05/13 00:01:57;;;;;;;19.02;4.85;;;13.50;78.10;;;;;;5092851;28;20374;-71
2022/05/13 00:04:23;;;;;;;15.68;4.28;;;13.50;78.00;;;;;;5092791;28;20043;-71
2022/05/13 00:06:49;;;;;;;24.20;6.25;;;13.50;78.30;;;;;;5092997;28;20548;-70
2022/05/13 00:09:14;;;;;;;19.48;4.60;;;13.60;78.10;;;;;;5090941;28;20458;-70
2022/05/13 00:11:40;;;;;;;15.10;3.88;;;13.50;77.90;;;;;;5091446;28;20055;-70
2022/05/13 00:14:08;;;;;;;13.73;4.18;;;13.50;78.50;;;;;;5092648;28;20039;-69
2022/05/13 00:16:35;;;;;;;11.40;3.85;;;13.50;78.60;;;;;;5092603;28;20051;-69
2022/05/13 00:19:05;;;;;;;11.60;4.00;;;13.50;79.00;;;;;;5092375;28;20402;-70
2022/05/13 00:21:30;;;;;;;16.10;4.72;;;13.50;78.60;;;;;;5092538;28;20085;-70
2022/05/13 00:23:56;;;;;;;20.00;6.15;;;13.50;79.10;;;;;;5092538;28;20044;-70
2022/05/13 00:26:21;;;;;;;23.17;5.47;;;13.50;78.70;;;;;;5092395;28;20044;-70
2022/05/13 00:28:47;;;;;;;17.00;4.97;;;13.40;79.50;;;;;;5091034;28;20047;-70
2022/05/13 00:31:13;;;;;;;19.63;5.40;;;13.40;79.00;;;;;;5090893;28;20066;-70
2022/05/13 00:33:39;;;;;;;17.63;4.60;;;13.50;79.00;;;;;;5091970;28;20032;-70
2022/05/13 00:36:04;;;;;;;17.58;4.40;;;13.50;78.70;;;;;;5092154;28;20051;-70
2022/05/13 00:38:30;;;;;;;11.95;3.95;;;13.50;79.00;;;;;;5092113;28;20056;-70
2022/05/13 00:40:56;;;;;;;23.13;4.95;;;13.50;78.90;;;;;;5092238;28;20079;-70
2022/05/13 00:43:47;;;;;;;14.88;4.45;;;13.50;78.60;;;;;;5092048;28;20051;-70
2022/05/13 00:46:13;;;;;;;17.27;5.50;;;13.50;78.80;;;;;;5091843;28;20051;-70
2022/05/13 00:48:39;;;;;;;17.90;4.35;;;13.50;79.00;;;;;;5092044;28;21048;-69
2022/05/13 00:51:07;;;;;;;17.83;5.22;;;13.50;79.20;;;;;;5091880;28;20036;-70
2022/05/13 00:53:34;;;;;;;15.50;6.35;;;13.50;79.30;;;;;;5091568;28;20054;-71
2022/05/13 00:56:00;;;;;;;17.70;5.00;;;13.50;79.40;;;;;;5091851;28;20044;-71
2022/05/13 00:58:26;;;;;;;25.42;5.85;;;13.50;79.60;;;;;;5091403;28;20050;-71
2022/05/13 01:00:52;;;;;;;22.45;5.20;;;13.50;79.60;;;;;;5091670;28;20040;-71
2022/05/13 01:03:18;;;;;;;24.88;5.07;;;13.50;79.80;;;;;;5091394;28;20040;-71
2022/05/13 01:05:49;;;;;;;17.73;5.95;;;13.50;79.70;;;;;;5091549;28;20040;-71
2022/05/13 01:08:15;;;;;;;28.58;6.03;;;13.50;80.10;;;;;;5091732;28;20040;-70
2022/05/13 01:10:44;;;;;;;27.52;6.25;;;13.50;80.10;;;;;;5091564;28;20492;-70
2022/05/13 01:13:13;;;;;;;16.30;6.00;;;13.50;79.70;;;;;;5091216;28;20091;-70
2022/05/13 01:15:41;;;;;;;27.02;6.07;;;13.50;79.80;;;;;;5091376;28;20492;-70
2022/05/13 01:18:07;;;;;;;27.05;5.68;;;13.50;80.00;;;;;;5091424;28;20051;-70
2022/05/13 01:20:46;;;;;;;24.77;6.07;;;13.50;80.20;;;;;;5090251;28;20583;-70
2022/05/13 01:23:19;;;;;;;18.08;5.75;;;13.50;80.20;;;;;;5091158;28;20089;-70
2022/05/13 01:25:59;;;;;;;28.55;6.53;;;13.40;80.50;;;;;;5090986;28;20048;-70
2022/05/13 01:28:34;;;;;;;25.63;6.05;;;13.40;80.30;;;;;;5091139;28;20501;-70
2022/05/13 01:31:03;;;;;;;26.38;6.68;;;13.40;80.40;;;;;;5091206;28;20424;-70
2022/05/13 01:33:29;;;;;;;30.13;7.45;;;13.30;81.40;;;;;;5089848;28;20044;-70
2022/05/13 01:35:58;;;;;;;24.25;6.40;;;13.30;81.10;;;;;;5091107;28;20047;-70
2022/05/13 01:38:43;;;;;;;25.02;6.45;;;13.30;81.20;;;;;;5090743;28;20048;-70
2022/05/13 01:41:10;;;;;;;25.48;7.95;;;13.30;81.50;;;;;;5091024;28;20134;-71
2022/05/13 01:43:37;;;;;;;24.83;6.90;;;13.20;81.60;;;;;;5090861;28;20481;-70
2022/05/13 01:46:03;;;;;;;22.77;5.85;;;13.30;81.40;;;;;;5090843;28;20079;-70
2022/05/13 01:48:29;;;;;;;34.28;8.40;;;13.30;81.40;;;;;;5090582;28;20091;-70
2022/05/13 01:50:55;;;;;;;30.20;5.93;;;13.30;81.30;;;;;;5090961;28;20109;-70
2022/05/13 01:53:20;;;;;;;16.80;5.85;;;13.30;81.40;;;;;;5090704;28;20043;-70
2022/05/13 01:55:46;;;;;;;19.83;5.97;;;13.30;81.20;;;;;;5090776;28;20442;-70
2022/05/13 01:58:14;;;;;;;31.38;6.85;;;13.30;81.50;;;;;;5090382;28;20081;-70
2022/05/13 02:00:41;;;;;;;21.55;6.40;;;13.30;81.40;;;;;;5090553;28;20051;-70
2022/05/13 02:05:51;;;;;;;33.95;7.63;;;13.30;81.50;;;;;;5090137;28;20047;-70
2022/05/13 02:08:16;;;;;;;20.98;6.13;;;13.30;81.60;;;;;;5090258;28;20439;-70
2022/05/13 02:10:43;;;;;;;26.10;6.68;;;13.30;81.60;;;;;;5089595;28;20056;-70
2022/05/13 02:13:10;;;;;;;25.20;7.00;;;13.30;81.50;;;;;;5090244;28;20051;-70
2022/05/13 02:15:36;;;;;;;33.25;8.23;;;13.30;81.70;;;;;;5090145;28;20059;-70
2022/05/13 02:18:02;;;;;;;26.20;5.82;;;13.30;81.60;;;;;;5090129;28;20123;-70
2022/05/13 02:20:27;;;;;;;25.15;5.65;;;13.20;81.50;;;;;;5090008;28;20076;-70
2022/05/13 02:22:53;;;;;;;22.30;6.10;;;13.20;81.40;;;;;;5090018;28;20903;-70
2022/05/13 02:25:19;;;;;;;19.08;5.28;;;13.20;81.30;;;;;;5088729;28;20051;-70
2022/05/13 02:27:44;;;;;;;25.35;7.32;;;13.30;81.00;;;;;;5090002;28;20485;-70
2022/05/13 02:30:11;;;;;;;23.15;5.47;;;13.30;81.00;;;;;;5089873;28;20048;-70
2022/05/13 02:32:36;;;;;;;29.67;6.65;;;13.30;80.70;;;;;;5089626;28;20039;-70
2022/05/13 02:35:02;;;;;;;26.05;7.05;;;13.30;80.40;;;;;;5090071;28;20040;-70
2022/05/13 02:37:28;;;;;;;19.67;5.80;;;13.20;80.30;;;;;;5089580;28;20488;-69
2022/05/13 02:39:54;;;;;;;27.15;6.80;;;13.30;80.20;;;;;;5089497;28;20051;-70
2022/05/13 02:42:19;;;;;;;20.52;5.35;;;13.30;80.00;;;;;;5089738;28;20036;-70
2022/05/13 02:44:45;;;;;;;23.95;5.65;;;13.30;80.00;;;;;;5089948;28;20040;-71
2022/05/13 02:47:10;;;;;;;24.33;6.45;;;13.30;79.80;;;;;;5089634;28;20048;-70
2022/05/13 02:49:36;;;;;;;14.68;4.50;;;13.30;79.60;;;;;;5089080;28;20036;-70
2022/05/13 02:52:02;;;;;;;24.17;7.03;;;13.30;79.80;;;;;;5089823;28;20044;-71
2022/05/13 02:54:27;;;;;;;14.93;5.25;;;13.20;79.90;;;;;;5089503;28;20047;-71
2022/05/13 02:56:53;;;;;;;20.65;5.55;;;13.20;79.90;;;;;;5089897;28;20056;-70
2022/05/13 02:59:18;;;;;;;26.00;5.30;;;13.30;79.70;;;;;;5089555;28;20071;-70
2022/05/13 03:01:44;;;;;;;25.92;5.80;;;13.30;79.90;;;;;;5089481;28;20044;-70
2022/05/13 03:04:10;;;;;;;25.95;5.72;;;13.30;79.70;;;;;;5089158;28;20408;-70
2022/05/13 03:06:35;;;;;;;25.33;7.22;;;13.40;79.70;;;;;;5089588;28;20396;-70
2022/05/13 03:09:02;;;;;;;24.63;6.28;;;13.30;79.90;;;;;;5088333;28;20085;-70
2022/05/13 03:11:28;;;;;;;25.95;7.22;;;13.30;80.00;;;;;;5089360;28;20090;-70
2022/05/13 03:13:53;;;;;;;23.30;5.50;;;13.30;79.90;;;;;;5089538;28;20048;-70
2022/05/13 03:16:24;;;;;;;23.38;5.53;;;13.30;79.90;;;;;;5089358;28;20113;-71
2022/05/13 03:18:53;;;;;;;28.02;5.40;;;13.30;79.80;;;;;;5089634;28;20047;-70
2022/05/13 03:21:20;;;;;;;16.77;4.68;;;13.30;79.70;;;;;;5091976;28;20048;-70
2022/05/13 03:23:45;;;;;;;23.20;5.93;;;13.30;79.70;;;;;;5093459;28;20077;-70
2022/05/13 03:26:13;;;;;;;22.25;5.32;;;13.30;79.80;;;;;;5093584;28;20139;-70
2022/05/13 03:28:39;;;;;;;21.80;5.47;;;13.30;79.90;;;;;;5093690;28;20044;-70
2022/05/13 03:31:05;;;;;;;20.48;5.03;;;13.20;79.90;;;;;;5093240;28;20047;-70
2022/05/13 03:33:31;;;;;;;21.33;5.68;;;13.30;79.70;;;;;;5093371;28;20412;-70
2022/05/13 03:35:57;;;;;;;22.88;4.43;;;13.30;79.60;;;;;;5093422;28;20044;-70
2022/05/13 03:38:22;;;;;;;20.08;4.97;;;13.30;79.50;;;;;;5093078;28;20036;-70
2022/05/13 03:40:48;;;;;;;30.35;5.38;;;13.20;79.30;;;;;;5093414;28;20392;-70
2022/05/13 03:43:15;;;;;;;19.35;4.05;;;13.20;78.90;;;;;;5093105;28;20089;-70
2022/05/13 03:45:41;;;;;;;15.23;4.10;;;13.20;78.70;;;;;;5093055;28;20044;-70
2022/05/13 03:48:07;;;;;;;15.35;4.10;;;13.20;78.40;;;;;;5093080;28;20446;-70
2022/05/13 03:50:36;;;;;;;14.02;3.20;;;13.20;78.00;;;;;;5091807;28;20067;-70
2022/05/13 03:53:03;;;;;;;12.00;3.03;;;13.20;77.60;;;;;;5091587;28;20091;-70
2022/05/13 03:55:29;;;;;;;10.95;2.92;;;13.20;77.10;;;;;;5092830;28;20044;-70
2022/05/13 03:57:55;;;;;;;12.10;3.30;;;13.20;77.00;;;;;;5093344;28;20036;-70
2022/05/13 04:00:22;;;;;;;15.73;3.30;;;13.20;76.80;;;;;;5092923;28;20040;-70
2022/05/13 04:02:47;;;;;;;12.70;3.13;;;13.20;76.30;;;;;;5091439;28;20051;-70
2022/05/13 04:10:42;;;;;;;9.50;2.80;;;13.20;76.10;;;;;;5092239;28;20561;-69
2022/05/13 04:16:04;;;;;;;12.00;2.80;;;13.20;75.80;;;;;;5092186;28;20930;-71
2022/05/13 04:18:31;;;;;;;10.43;3.03;;;13.20;75.80;;;;;;5092362;28;20044;-69
2022/05/13 04:20:57;;;;;;;10.48;2.72;;;13.30;75.60;;;;;;5092421;28;20873;-69
2022/05/13 04:23:23;;;;;;;9.18;3.10;;;13.20;75.20;;;;;;5092049;28;20040;-70
2022/05/13 04:25:49;;;;;;;9.07;3.42;;;13.20;75.50;;;;;;5092395;28;20135;-70
2022/05/13 04:28:15;;;;;;;9.80;2.90;;;13.20;75.30;;;;;;5092071;28;20127;-70
2022/05/13 04:30:41;;;;;;;10.02;2.50;;;13.30;75.10;;;;;;5092101;28;20492;-70
2022/05/13 04:33:07;;;;;;;6.13;2.20;;;13.20;75.00;;;;;;5091396;28;20127;-70
2022/05/13 04:35:33;;;;;;;12.75;2.42;;;13.20;74.90;;;;;;5091810;28;20040;-70
2022/05/13 04:37:58;;;;;;;8.80;2.78;;;13.20;74.80;;;;;;5091871;28;20068;-70
2022/05/13 04:40:24;;;;;;;10.20;3.17;;;13.10;74.70;;;;;;5091914;28;20080;-70
2022/05/13 04:42:49;;;;;;;9.35;2.30;;;13.10;74.50;;;;;;5091901;28;20105;-70
2022/05/13 04:45:19;;;;;;;10.05;3.03;;;13.10;74.30;;;;;;5090424;28;20426;-70
2022/05/13 04:50:29;;;;;;;8.60;2.20;;;13.10;74.10;;;;;;5091606;28;20056;-70
2022/05/13 04:52:54;;;;;;;11.73;2.35;;;13.10;74.10;;;;;;5090539;28;20451;-70
2022/05/13 04:55:20;;;;;;;10.85;2.95;;;13.10;74.20;;;;;;5091487;28;20063;-73
2022/05/13 04:57:45;;;;;;;10.63;2.13;;;13.10;73.90;;;;;;5091346;28;20145;-70
2022/05/13 05:00:12;;;;;;;8.23;2.13;;;13.10;73.80;;;;;;5091513;28;20412;-70
2022/05/13 05:02:37;;;;;;;9.15;2.85;;;13.10;74.00;;;;;;5091449;28;20048;-70
2022/05/13 05:05:03;;;;;;;8.30;2.65;;;13.10;74.00;;;;;;5091817;28;20476;-69
2022/05/13 05:07:29;;;;;;;8.95;3.10;;;13.10;73.90;;;;;;5091422;28;20505;-69
2022/05/13 05:09:54;;;;;;;7.18;1.85;;;13.10;74.00;;;;;;5091561;28;20044;-71
2022/05/13 05:12:20;;;;;;;13.10;3.22;;;13.20;74.20;;;;;;5090900;28;20055;-70
2022/05/13 05:14:45;;;;;;;9.57;2.38;;;13.20;74.30;;;;;;5091347;28;20503;-70
2022/05/13 05:17:11;;;;;;;20.45;2.42;;;13.20;74.50;;;;;;5091439;28;20048;-69
2022/05/13 05:19:36;;;;;;;9.00;2.13;;;13.20;74.60;;;;;;5091283;28;20036;-70
2022/05/13 05:22:05;;;;;;;8.57;2.92;;;13.30;74.60;;;;;;5090859;28;21260;-70
2022/05/13 05:24:30;;;;;;;13.73;2.70;;;13.20;74.90;;;;;;5091106;28;20127;-70
2022/05/13 05:26:56;;;;;;;11.45;2.97;;;13.20;74.90;;;;;;5091165;28;20527;-70
2022/05/13 05:29:22;;;;;;;10.55;4.55;;;13.30;74.60;;;;;;5091201;28;20044;-70
2022/05/13 05:31:48;;;;;;;10.45;2.83;;;13.30;74.40;;;;;;5091048;28;20050;-70
2022/05/13 05:34:16;;;;;;;9.05;2.47;;;13.30;74.50;;;;;;5090586;28;20048;-69
2022/05/13 05:36:42;;;;;;;18.45;3.15;;;13.30;74.50;;;;;;5091113;28;20097;-71
2022/05/13 05:39:08;;;;;;;11.63;2.63;;;13.30;74.80;;;;;;5090882;28;20048;-70
2022/05/13 05:41:34;;;;;;;13.45;3.70;;;13.40;74.20;;;;;;5090242;28;20114;-70
2022/05/13 05:43:59;;;;;;;13.45;2.50;;;13.30;72.80;;;;;;5090000;28;20044;-70
2022/05/13 05:46:25;;;;;;;7.75;2.30;;;13.40;73.30;;;;;;5090594;28;20036;-70
2022/05/13 05:48:50;;;;;;;12.57;2.30;;;13.40;72.80;;;;;;5090794;28;20040;-71
2022/05/13 05:51:16;;;;;;;7.45;1.50;;;13.50;72.80;;;;;;5089147;28;20066;-71
2022/05/13 05:59:10;;;;;;;17.75;3.83;;;13.50;73.10;;;;;;5090605;28;20078;-70
2022/05/13 06:01:36;;;;;;;7.32;2.88;;;13.50;73.50;;;;;;5089970;28;20124;-69
2022/05/13 06:04:03;;;;;;;12.68;3.13;;;13.50;73.50;;;;;;5090565;28;20051;-69
2022/05/13 06:06:29;;;;;;;11.80;2.85;;;13.50;73.70;;;;;;5090367;28;20082;-70
2022/05/13 06:08:55;;;;;;;8.65;1.90;;;13.50;73.90;;;;;;5089077;28;20095;-70
2022/05/13 06:11:23;;;;;;;20.40;3.38;;;13.50;73.70;;;;;;5090038;28;20060;-70
2022/05/13 06:13:53;;;;;;;7.88;1.88;;;13.50;73.50;;;;;;5090283;28;20048;-69
2022/05/13 06:16:22;;;;;;;24.95;3.17;;;13.60;73.20;;;;;;5090510;28;20044;-70
2022/05/13 06:18:48;;;;;;;16.08;4.00;;;13.60;73.20;;;;;;5090097;28;20051;-70
2022/05/13 06:21:14;;;;;;;8.73;1.73;;;13.60;72.90;;;;;;5089907;28;20047;-70
2022/05/13 06:23:39;;;;;;;8.82;2.20;;;13.50;72.80;;;;;;5089644;28;20130;-70
2022/05/13 06:26:05;;;;;;;24.17;6.72;;;13.50;72.90;;;;;;5089924;28;20500;-70
2022/05/13 06:28:31;;;;;;;6.22;1.98;;;13.40;73.20;;;;;;5089861;28;20044;-70
2022/05/13 06:30:57;;;;;;;7.95;2.38;;;13.50;73.00;;;;;;5089599;28;20420;-70
2022/05/13 06:33:23;;;;;;;10.50;2.25;;;13.60;72.80;;;;;;5089926;28;20551;-70
2022/05/13 06:35:49;;;;;;;6.82;2.65;;;13.50;73.20;;;;;;5090027;28;20816;-70
2022/05/13 06:38:20;;;;;;;12.70;2.53;;;13.60;73.20;;;;;;5089589;28;20047;-70
2022/05/13 06:40:49;;;;;;;14.13;2.10;;;13.60;73.30;;;;;;5090277;28;20044;-71
2022/05/13 06:43:16;;;;;;;9.48;3.05;;;13.60;73.10;;;;;;5089546;28;20685;-71
2022/05/13 06:45:42;;;;;;;9.63;1.67;;;13.60;72.70;;;;;;5089641;28;20080;-71
2022/05/13 06:48:09;;;;;;;13.73;2.55;;;13.60;72.80;;;;;;5089351;28;20454;-71
2022/05/13 06:50:35;;;;;;;13.57;1.70;;;13.60;72.90;;;;;;5088233;28;21006;-70
2022/05/13 06:53:01;;;;;;;7.60;1.92;;;13.60;73.00;;;;;;5089665;28;20036;-71
2022/05/13 06:55:27;;;;;;;8.05;2.85;;;13.60;72.40;;;;;;5087921;28;20095;-71
2022/05/13 06:57:52;;;;;;;6.95;2.00;;;13.60;72.90;;;;;;5089326;28;20052;-71
2022/05/13 07:00:18;;;;;;;6.78;1.58;;;13.60;72.60;;;;;;5088165;28;20047;-71
2022/05/13 07:02:44;;;;;;;6.18;1.75;;;13.60;72.80;;;;;;5089467;28;20056;-71
2022/05/13 07:05:12;;;;;;;6.05;1.98;;;13.60;72.20;;;;;;5089409;28;20055;-71
2022/05/13 07:07:37;;;;;;;9.50;2.05;;;13.60;72.40;;;;;;5088334;28;20048;-71
2022/05/13 07:10:04;;;;;;;9.43;2.40;;;13.60;72.90;;;;;;5089243;28;20040;-70
2022/05/13 07:12:30;;;;;;;7.93;2.17;;;13.60;72.90;;;;;;5087963;28;20071;-71
2022/05/13 07:14:56;;;;;;;8.38;1.95;;;13.60;73.00;;;;;;5089392;28;20040;-70
2022/05/13 07:17:22;;;;;;;11.95;2.50;;;13.70;72.80;;;;;;5089485;28;20123;-70
2022/05/13 07:19:48;;;;;;;10.40;2.70;;;13.70;72.60;;;;;;5089183;28;20523;-71
2022/05/13 07:22:14;;;;;;;5.85;2.05;;;13.80;72.10;;;;;;5089288;28;20040;-70
2022/05/13 07:24:39;;;;;;;9.07;2.08;;;13.80;72.10;;;;;;5089087;28;20085;-70
2022/05/13 07:27:05;;;;;;;5.95;1.95;;;13.80;71.90;;;;;;5089368;28;20055;-70
2022/05/13 07:29:31;;;;;;;8.45;2.15;;;13.80;72.60;;;;;;5088852;28;20063;-70
2022/05/13 07:31:57;;;;;;;14.15;3.90;;;13.90;72.00;;;;;;5089343;28;20932;-70
2022/05/13 07:34:23;;;;;;;8.50;1.92;;;14.00;72.00;;;;;;5089388;28;20139;-70
2022/05/13 07:36:53;;;;;;;6.50;2.17;;;13.90;72.40;;;;;;5089164;28;20507;-70
2022/05/13 07:42:07;;;;;;;10.27;2.00;;;13.90;72.60;;;;;;5088800;28;20048;-70
2022/05/13 07:44:33;;;;;;;11.07;1.88;;;13.90;72.30;;;;;;5089213;28;20101;-70
2022/05/13 07:46:59;;;;;;;10.63;2.13;;;13.90;72.40;;;;;;5089022;28;20135;-70
2022/05/13 07:49:25;;;;;;;8.05;1.92;;;13.90;72.70;;;;;;5089267;28;20048;-71
2022/05/13 07:51:50;;;;;;;8.23;2.85;;;13.80;72.50;;;;;;5089084;28;20047;-70
2022/05/13 07:54:16;;;;;;;15.35;3.20;;;13.90;72.80;;;;;;5088716;28;20048;-70
2022/05/13 07:56:41;;;;;;;11.25;2.88;;;14.10;73.00;;;;;;5087508;28;20048;-70
2022/05/13 07:59:07;;;;;;;5.88;1.85;;;14.20;71.60;;;;;;5089162;28;20071;-70
2022/05/13 08:01:33;;;;;;;14.13;2.67;;;14.10;71.10;;;;;;5087580;28;20113;-70
2022/05/13 08:03:59;;;;;;;10.20;1.90;;;14.00;72.00;;;;;;5088667;28;20135;-70
2022/05/13 08:06:25;;;;;;;8.10;2.03;;;14.20;72.40;;;;;;5088954;28;20040;-71
2022/05/13 08:08:55;;;;;;;8.63;1.67;;;14.20;70.50;;;;;;5091927;28;20127;-70
2022/05/13 08:11:23;;;;;;;5.22;2.10;;;14.30;71.20;;;;;;5092504;28;20067;-70
2022/05/13 08:13:49;;;;;;;13.95;2.60;;;14.30;71.10;;;;;;5090904;28;20111;-70
2022/05/13 08:16:18;;;;;;;7.60;2.38;;;14.40;71.10;;;;;;5092442;28;20052;-70
2022/05/13 08:18:46;;;;;;;12.15;3.30;;;14.50;71.50;;;;;;5091361;28;20089;-71
2022/05/13 08:21:12;;;;;;;7.50;2.05;;;14.60;70.80;;;;;;5091325;28;20445;-70
2022/05/13 08:23:38;;;;;;;9.15;1.75;;;14.60;71.20;;;;;;5092182;28;20042;-71
2022/05/13 08:26:05;;;;;;;9.90;3.05;;;14.70;70.80;;;;;;5092278;28;20044;-70
2022/05/13 08:28:31;;;;;;;5.38;1.60;;;14.60;70.80;;;;;;5092203;28;20088;-70
2022/05/13 08:30:57;;;;;;;7.53;2.25;;;14.60;70.30;;;;;;5092202;28;20139;-71
2022/05/13 08:33:23;;;;;;;7.60;2.28;;;14.80;70.20;;;;;;5092137;28;20170;-71
2022/05/13 08:35:55;;;;;;;7.28;2.00;;;14.80;70.80;;;;;;5073565;28;20053;-71
2022/05/13 08:38:24;;;;;;;7.90;1.60;;;14.90;69.70;;;;;;5091959;28;20044;-71
2022/05/13 08:40:50;;;;;;;8.25;1.70;;;14.80;69.30;;;;;;5091840;28;20078;-71
2022/05/13 08:43:25;;;;;;;8.07;1.73;;;14.90;69.60;;;;;;5091961;28;20084;-70
2022/05/13 08:45:55;;;;;;;9.70;1.77;;;14.90;69.40;;;;;;5091984;28;20142;-70
2022/05/13 08:48:30;;;;;;;7.80;1.70;;;14.90;69.10;;;;;;5091507;28;20093;-70
2022/05/13 08:51:18;;;;;;;7.72;1.60;;;15.00;69.50;;;;;;5091823;28;20063;-71
2022/05/13 08:54:11;;;;;;;11.40;2.47;;;15.10;69.60;;;;;;5091716;28;20063;-70
2022/05/13 08:56:37;;;;;;;7.22;1.88;;;15.20;69.10;;;;;;5089946;28;20061;-71
2022/05/13 08:59:10;;;;;;;11.07;2.40;;;15.30;69.90;;;;;;5091759;28;20509;-71
2022/05/13 09:01:41;;;;;;;10.18;2.65;;;15.20;69.80;;;;;;5091511;28;20055;-71
2022/05/13 09:04:34;;;;;;;7.70;2.30;;;15.30;69.80;;;;;;5091836;28;20093;-70
2022/05/13 09:07:04;;;;;;;17.35;3.78;;;15.30;69.70;;;;;;5091254;28;20056;-70
2022/05/13 09:09:31;;;;;;;9.70;2.30;;;15.10;69.70;;;;;;5091189;28;20130;-70
2022/05/13 09:12:05;;;;;;;8.75;2.17;;;15.00;69.30;;;;;;5091444;28;20052;-69
2022/05/13 09:15:02;;;;;;;11.88;2.92;;;14.90;70.10;;;;;;5090161;28;20051;-70
2022/05/13 09:18:07;;;;;;;11.18;2.65;;;14.90;70.60;;;;;;5088202;28;20060;-69
2022/05/13 09:20:51;;;;;;;9.80;3.05;;;14.90;70.70;;;;;;5091298;28;20138;-70
2022/05/13 09:23:19;;;;;;;11.25;1.98;;;14.90;69.80;;;;;;5090922;28;20047;-70
2022/05/13 09:26:04;;;;;;;8.90;2.47;;;14.80;70.30;;;;;;5091129;28;20043;-70
2022/05/13 09:28:33;;;;;;;9.15;2.63;;;14.90;70.40;;;;;;5089753;28;20051;-70
2022/05/13 09:31:26;;;;;;;13.80;3.22;;;15.00;70.70;;;;;;5073161;28;20055;-69
2022/05/13 09:33:52;;;;;;;10.52;3.22;;;15.20;70.60;;;;;;5090145;28;20578;-70
2022/05/13 09:36:25;;;;;;;12.27;2.55;;;15.30;70.20;;;;;;5091089;28;20052;-70
2022/05/13 09:38:53;;;;;;;15.57;3.22;;;15.30;70.30;;;;;;5090547;28;20492;-69
2022/05/13 09:41:29;;;;;;;13.88;2.92;;;15.30;68.30;;;;;;5090936;28;20382;-69
2022/05/13 09:43:57;;;;;;;12.48;3.47;;;15.30;69.20;;;;;;5091053;28;20521;-69
2022/05/13 09:46:39;;;;;;;11.73;2.20;;;15.50;70.50;;;;;;5090794;28;20043;-70
2022/05/13 09:49:15;;;;;;;9.23;2.25;;;15.50;69.20;;;;;;5090392;28;20063;-69
2022/05/13 09:52:18;;;;;;;8.68;2.15;;;15.50;69.10;;;;;;5090549;28;20070;-70
2022/05/13 09:54:46;;;;;;;12.77;2.58;;;15.50;68.60;;;;;;5067773;28;20762;-69
2022/05/13 09:57:22;;;;;;;9.77;2.53;;;15.60;69.30;;;;;;5086522;28;20091;-70
2022/05/13 10:00:03;;;;;;;13.43;2.35;;;15.60;68.60;;;;;;5090349;28;20051;-72
2022/05/13 10:02:29;;;;;;;14.57;2.53;;;15.70;68.40;;;;;;5090144;28;20051;-71
2022/05/13 10:05:21;;;;;;;7.80;1.92;;;15.70;68.30;;;;;;5090392;28;20044;-71
2022/05/13 10:07:53;;;;;;;;;;;15.90;68.60;;;;;;5090630;28;20048;-68
2022/05/13 10:14:09;;;;;;;12.10;2.42;;;15.90;67.00;;;;;;5089937;28;20079;-71
2022/05/13 10:16:42;;;;;;;14.75;2.40;;;15.90;67.00;;;;;;5085767;28;20048;-70
2022/05/13 10:19:16;;;;;;;9.80;1.98;;;16.00;65.70;;;;;;5090289;28;20047;-71
2022/05/13 10:22:11;;;;;;;11.80;1.98;;;16.10;66.10;;;;;;5089890;28;20079;-71
2022/05/13 10:24:54;;;;;;;9.18;2.33;;;16.10;66.30;;;;;;5071858;28;20079;-72
2022/05/13 10:27:35;;;;;;;10.80;2.47;;;16.10;65.90;;;;;;5089840;28;20126;-72
2022/05/13 10:30:33;;;;;;;13.75;3.63;;;16.00;66.70;;;;;;5089379;28;20043;-71
2022/05/13 10:33:04;;;;;;;6.90;1.95;;;16.00;66.10;;;;;;5089644;28;20522;-71
2022/05/13 10:35:39;;;;;;;10.93;2.50;;;15.80;66.60;;;;;;5089920;28;20044;-72
2022/05/13 10:38:04;;;;;;;12.73;2.20;;;15.90;67.10;;;;;;5090058;28;20444;-72
2022/05/13 10:40:35;;;;;;;11.02;2.33;;;15.90;67.40;;;;;;5088062;28;20055;-71
2022/05/13 10:43:15;;;;;;;8.05;2.17;;;16.00;67.60;;;;;;5089664;28;20447;-71
2022/05/13 10:45:42;;;;;;;13.18;2.28;;;16.00;67.00;;;;;;5089381;28;20400;-72
2022/05/13 10:48:17;;;;;;;11.68;4.05;;;16.10;66.80;;;;;;5089431;28;20054;-72
2022/05/13 10:51:01;;;;;;;8.80;2.08;;;16.10;66.60;;;;;;5089634;28;20492;-72
2022/05/13 10:53:45;;;;;;;14.75;2.75;;;16.10;66.80;;;;;;5089645;28;20080;-71
2022/05/13 10:56:27;;;;;;;8.80;2.58;;;16.10;66.50;;;;;;5089819;28;20063;-72
2022/05/13 10:59:09;;;;;;;12.52;3.13;;;16.10;65.50;;;;;;5089392;28;20076;-70
2022/05/13 11:02:02;;;;;;;10.93;1.85;;;16.10;66.00;;;;;;5088190;28;20036;-71
2022/05/13 11:04:38;;;;;;;10.90;2.35;;;16.30;65.50;;;;;;5089181;28;20539;-71
2022/05/13 11:07:33;;;;;;;8.70;2.13;;;16.30;64.10;;;;;;5089456;28;20075;-71
2022/05/13 11:10:10;;;;;;;8.80;1.73;;;16.50;64.00;;;;;;5088401;28;20056;-70
2022/05/13 11:12:40;;;;;;;9.70;3.03;;;16.50;63.50;;;;;;5089128;28;20105;-71
2022/05/13 11:15:11;;;;;;;14.43;2.38;;;16.60;63.50;;;;;;5089640;28;20055;-71
2022/05/13 11:18:14;;;;;;;6.93;3.50;;;16.60;63.30;;;;;;5089349;28;20122;-70
2022/05/13 11:20:50;;;;;;;8.88;2.08;;;16.50;63.00;;;;;;5089325;28;20079;-71
2022/05/13 11:25:54;;;;;;;8.40;2.20;;;16.30;64.10;;;;;;5089293;28;20044;-73
2022/05/13 11:26:50;;;;;;;12.35;2.22;;;16.20;65.00;;;;;;5088976;28;20044;-71
2022/05/13 11:29:42;;;;;;;11.23;2.40;;;16.10;64.10;;;;;;5089281;28;20049;-71
2022/05/13 11:32:14;;;;;;;;;;;16.20;65.40;;;;;;5089853;28;20074;-71
2022/05/13 11:35:09;;;;;;;14.85;4.03;;;16.20;66.20;;;;;;5089306;28;19924;-71
2022/05/13 11:37:42;;;;;;;9.38;2.50;;;16.20;64.50;;;;;;5088941;28;20561;-71
2022/05/13 11:40:26;;;;;;;9.25;3.10;;;16.10;65.50;;;;;;5088966;28;20046;-72
2022/05/13 11:43:19;;;;;;;18.30;2.85;;;16.10;66.00;;;;;;5090716;28;20055;-71
2022/05/13 11:46:18;;;;;;;13.65;2.35;;;16.10;66.60;;;;;;5093058;28;20040;-71
2022/05/13 11:48:48;;;;;;;11.65;2.53;;;16.00;67.30;;;;;;5093363;28;20051;-71
2022/05/13 11:51:17;;;;;;;11.88;2.80;;;16.10;67.80;;;;;;5093035;28;20040;-71
2022/05/13 11:54:09;;;;;;;9.80;3.03;;;16.00;67.80;;;;;;5093028;28;20040;-71
2022/05/13 11:56:35;;;;;;;7.90;2.42;;;16.20;66.90;;;;;;5092889;28;20476;-71
2022/05/13 11:59:30;;;;;;;13.07;3.13;;;16.20;66.60;;;;;;5093963;28;20401;-72
2022/05/13 12:02:05;;;;;;;12.07;2.92;;;16.40;66.20;;;;;;5092763;28;20048;-72
2022/05/13 12:04:33;;;;;;;11.23;3.08;;;16.30;65.70;;;;;;5092312;28;20450;-72
2022/05/13 12:07:21;;;;;;;10.07;2.55;;;16.10;65.90;;;;;;5092810;28;20074;-72
2022/05/13 12:09:49;;;;;;;6.72;1.98;;;16.10;66.30;;;;;;5091200;28;20504;-73
2022/05/13 12:12:36;;;;;;;9.57;2.15;;;16.00;65.40;;;;;;5092291;28;20066;-72
2022/05/13 12:15:34;;;;;;;12.15;2.53;;;15.90;65.50;;;;;;5092643;28;20110;-71
2022/05/13 12:18:06;;;;;;;16.50;2.58;;;16.00;65.20;;;;;;5092773;28;20044;-71
2022/05/13 12:21:05;;;;;;;13.52;2.38;;;16.00;64.70;;;;;;5091863;28;20040;-71
2022/05/13 12:23:54;;;;;;;10.30;2.30;;;16.00;63.70;;;;;;5092023;28;20089;-71
2022/05/13 12:26:45;;;;;;;10.18;2.92;;;16.20;63.70;;;;;;5092248;28;20549;-71
2022/05/13 12:29:16;;;;;;;7.57;1.55;;;16.40;63.30;;;;;;5091426;28;20587;-72
2022/05/13 12:31:48;;;;;;;3.03;1.45;;;16.60;62.60;;;;;;5074116;28;20044;-71
2022/05/13 12:39:52;;;;;;;12.32;2.65;;;16.60;61.80;;;;;;5091722;28;20172;-71
2022/05/13 12:42:55;;;;;;;11.95;3.58;;;16.60;62.60;;;;;;5091888;28;20094;-71
2022/05/13 12:45:39;;;;;;;6.78;1.95;;;16.60;61.70;;;;;;5092032;28;20052;-71
2022/05/13 12:48:07;;;;;;;12.35;2.47;;;16.50;61.20;;;;;;5091969;28;20056;-71
2022/05/13 12:50:48;;;;;;;9.73;2.03;;;16.50;60.50;;;;;;5091359;28;20048;-70
2022/05/13 12:53:29;;;;;;;16.23;3.08;;;16.50;60.40;;;;;;5091394;28;20047;-71
2022/05/13 12:56:08;;;;;;;10.60;3.28;;;16.60;61.50;;;;;;5091730;28;20471;-71
2022/05/13 12:58:37;;;;;;;9.93;1.83;;;16.60;60.60;;;;;;5091642;28;20052;-70
2022/05/13 13:01:04;;;;;;;7.40;1.63;;;16.80;60.70;;;;;;5091883;28;20047;-72
2022/05/13 13:03:39;;;;;;;14.77;2.75;;;16.80;59.80;;;;;;5091161;28;20469;-72
2022/05/13 13:06:12;;;;;;;10.98;1.98;;;16.70;59.60;;;;;;5091661;28;20135;-72
2022/05/13 13:08:40;;;;;;;10.18;2.03;;;16.80;59.80;;;;;;5091584;28;20044;-72
2022/05/13 13:11:23;;;;;;;11.93;2.33;;;16.70;60.40;;;;;;5091403;28;20455;-72
2022/05/13 13:14:10;;;;;;;9.57;2.35;;;16.60;61.10;;;;;;5091257;28;20059;-72
2022/05/13 13:16:57;;;;;;;11.20;3.45;;;16.70;61.50;;;;;;5091472;28;20055;-72
2022/05/13 13:19:29;;;;;;;9.48;2.70;;;16.60;59.50;;;;;;5091353;28;20052;-72
2022/05/13 13:22:09;;;;;;;9.18;1.77;;;16.30;58.90;;;;;;5091244;28;20071;-72
2022/05/13 13:24:38;;;;;;;10.77;2.05;;;16.20;60.50;;;;;;5090839;28;20440;-72
2022/05/13 13:27:06;;;;;;;7.93;1.80;;;16.10;61.40;;;;;;5090065;28;20093;-72
2022/05/13 13:29:39;;;;;;;10.25;2.10;;;16.10;62.00;;;;;;5091360;28;20036;-73
2022/05/13 13:32:11;;;;;;;8.60;2.35;;;16.10;61.90;;;;;;5091149;28;20044;-71